Pierz, Minnesota
Current Conditions -  °F | °C
As of 8:58 PM on Sunday 23 Nov 2014 (Local Time) from KLXL Reporting Station
Overcast Overcast  
Wind Chill: 26°   Ceiling: 2000
Heat Index: 32°   Visibility: 10mi
Dew Point: 27°   Wind: 7mph
Humidity: 80%   Direction: 310°NW
Pressure: 29.41"   Gusts: NA
Location:  45.98°N, 94.1°W
Report Text: KLXL 240258Z AUTO 31006KT 10SM OVC020 00/M03 A2941 RMK AO2
Loading
Personal Weather Stations






























Interactive Weather Map New forecast layout! Learn more

10-Day Weather Forecast

Advertisements
Track Severe Weather on mobile